> <
  • 1
  • 2

Novidades

  • Temos o prazer de lhe apresentar… Ler mais +
  • Está disponível a secção Multimédia no… Ler mais +
  • 1
[source: ADDS]
METAR
LPPR 222100Z VRB02KT 5000 BR SCT005 BKN039 12/11 Q1031 =
TAF
TAF LPPR 221700Z 2218/2318 VRB03KT 9999 SCT006 BKN025 BECMG 2219/2222 08005KT 8000 SCT002 BKN004 PROB40 2222/2308 0300 FG VV001 BECMG 2309/2311 9999 SCT008 BKN015 BECMG 2313/2316 33007KT FEW020 =

contactos